Latest Weather Observations for Darwin Airport

IDD60901

Issued at 5:41 pm CST Friday 29 May 2015 (issued every 10 minutes, with the page automatically refreshed every 10 minutes)

About weather observations | Map of Darwin area stations | Latest observations for Darwin area | Other Formats
Station Details ID: 014015 Name: DARWIN AIRPORT Lat: -12.42 Lon: 130.89 Height: 30.4 m
Data from the previous 72 hours. | See also: Recent months at Darwin Airport
Date/Time
CST
Tmp

°C
App
Tmp
°C
Dew
Point
°C
Rel
Hum
%
Delta-T

°C
Wind Press
QNH
hPa
Press
MSL
hPa
Rain
since
9 am
mm
Dir
 
Spd
km/h
Gust
km/h
Spd
kts
Gust
kts
29/05:30pm 30.1 31.6 21.3 59 5.9 ENE 15 17 8 9 1011.6 - 0.0
29/05:00pm 30.4 31.5 21.3 58 6.1 ENE 17 19 9 10 1011.1 - 0.0
29/04:30pm 30.9 31.4 20.9 55 6.7 NE 19 24 10 13 1011.2 - 0.0
29/04:00pm 31.3 30.8 19.0 48 8.0 E 20 28 11 15 1011.2 - 0.0
29/03:30pm 31.9 30.6 19.1 46 8.4 ENE 24 32 13 17 1011.1 - 0.0
29/03:00pm 32.3 29.7 18.6 44 8.9 E 30 37 16 20 1011.4 1011.2 0.0
29/02:30pm 32.5 29.4 18.5 43 9.1 E 32 41 17 22 1011.5 - 0.0
29/02:00pm 32.6 30.7 18.6 43 9.1 E 26 33 14 18 1011.6 - 0.0
29/01:30pm 32.5 30.7 18.7 44 9.0 E 26 35 14 19 1011.8 - 0.0
29/01:00pm 32.8 30.4 18.3 42 9.4 E 28 39 15 21 1012.4 - 0.0
29/12:30pm 32.4 29.2 18.6 44 9.0 ENE 33 44 18 24 1012.8 - 0.0
29/12:00pm 31.6 28.4 18.7 46 8.4 E 33 43 18 23 1013.4 1013.2 0.0
29/11:30am 31.5 29.4 18.9 47 8.2 ENE 28 37 15 20 1014.0 - 0.0
29/11:00am 30.6 28.9 18.9 49 7.6 ENE 26 33 14 18 1014.5 - 0.0
29/10:30am 30.3 29.1 19.3 51 7.2 E 24 33 13 18 1014.8 - 0.0
29/10:00am 29.3 28.1 19.3 55 6.5 E 24 30 13 16 1015.2 - 0.0
29/09:30am 28.3 28.6 19.5 59 5.7 E 17 20 9 11 1015.0 - 0.0
29/09:00am 26.6 27.7 20.5 69 4.0 ESE 15 19 8 10 1014.8 1014.6 0.0
29/08:30am 24.6 27.0 21.6 83 2.0 SE 11 13 6 7 1014.4 - 0.0
29/08:00am 23.5 26.2 22.1 92 0.9 SSE 11 13 6 7 1014.1 - 0.0
29/07:30am 22.7 24.9 21.8 95 0.6 SSE 13 15 7 8 1013.9 - 0.0
29/07:00am 22.6 25.1 21.7 95 0.6 S 11 13 6 7 1013.6 - 0.0
29/06:30am 22.4 25.2 21.6 95 0.5 SSE 9 11 5 6 1013.6 - 0.0
29/06:00am 22.6 25.5 21.8 95 0.5 SSE 9 11 5 6 1013.4 1013.2 0.0
29/05:30am 22.7 25.3 21.9 95 0.5 SE 11 13 6 7 1013.4 - 0.0
29/05:00am 23.0 25.7 22.1 95 0.6 SSE 11 15 6 8 1013.1 - 0.0
29/04:30am 22.2 25.4 21.3 95 0.6 SSE 6 7 3 4 1012.8 - 0.0
29/04:00am 23.1 25.7 21.9 93 0.8 S 11 13 6 7 1012.5 - 0.0
29/03:30am 23.4 26.0 22.0 92 0.9 S 11 13 6 7 1012.5 - 0.0
29/03:00am 23.6 26.6 21.9 90 1.1 S 9 13 5 7 1012.5 1012.3 0.0
29/02:30am 23.5 25.6 21.7 90 1.2 S 13 13 7 7 1012.9 - 0.0
29/02:00am 23.2 25.5 21.4 90 1.2 S 11 13 6 7 1013.2 - 0.0
29/01:30am 23.1 25.0 21.4 90 1.1 S 13 13 7 7 1013.3 - 0.0
29/01:00am 23.6 25.6 21.6 88 1.3 S 13 15 7 8 1013.4 - 0.0
29/12:30am 24.1 26.6 21.8 87 1.5 SSE 11 13 6 7 1013.4 - 0.0
29/12:00am 24.2 26.8 21.9 87 1.5 S 11 13 6 7 1013.5 1013.3 0.0
 
Date/Time
CST
Tmp

°C
App
Tmp
°C
Dew
Point
°C
Rel
Hum
%
Delta-T

°C
Wind Press
QNH
hPa
Press
MSL
hPa
Rain
since
9 am
mm
Dir
 
Spd
km/h
Gust
km/h
Spd
kts
Gust
kts
28/11:30pm 24.0 26.3 21.3 85 1.8 S 11 13 6 7 1013.6 - 0.0
28/11:00pm 24.7 26.7 20.7 78 2.6 S 11 15 6 8 1013.6 - 0.0
28/10:30pm 24.5 26.7 20.4 78 2.7 S 9 11 5 6 1013.5 - 0.0
28/10:00pm 25.0 26.7 20.1 74 3.2 S 11 13 6 7 1013.5 - 0.0
28/09:30pm 24.3 27.0 20.3 78 2.6 ESE 6 7 3 4 1013.1 - 0.0
28/09:00pm 24.8 27.6 20.5 77 2.8 ENE 6 7 3 4 1012.9 1012.7 0.0
28/08:30pm 25.0 27.3 20.6 76 2.9 NNE 9 13 5 7 1012.7 - 0.0
28/08:00pm 25.5 28.0 21.1 76 2.9 NNE 9 13 5 7 1012.4 - 0.0
28/07:30pm 26.3 28.3 20.8 71 3.6 NNE 11 13 6 7 1012.3 - 0.0
28/07:00pm 27.1 29.3 21.2 70 3.9 NNE 11 13 6 7 1011.9 - 0.0
28/06:30pm 27.9 29.2 20.1 62 5.1 NNE 13 15 7 8 1011.6 - 0.0
28/06:00pm 29.1 29.5 18.9 54 6.6 NE 15 20 8 11 1011.2 1011.0 0.0
28/05:30pm 30.2 29.7 19.1 51 7.2 NE 20 26 11 14 1010.8 - 0.0
28/05:00pm 30.8 29.8 18.8 48 7.8 NNE 22 32 12 17 1010.7 - 0.0
28/04:30pm 30.6 29.8 19.3 51 7.4 NNE 22 30 12 16 1010.5 - 0.0
28/04:00pm 33.2 31.1 14.7 32 11.4 E 19 28 10 15 1010.4 - 0.0
28/03:30pm 32.3 30.1 14.5 34 10.9 ESE 19 28 10 15 1010.6 - 0.0
28/03:00pm 32.5 30.4 14.6 34 11.0 ESE 19 30 10 16 1010.9 1010.7 0.0
28/02:30pm 32.4 29.2 14.2 33 11.1 E 24 33 13 18 1011.2 - 0.0
28/02:00pm 31.9 29.6 14.6 35 10.6 E 20 28 11 15 1011.6 - 0.0
28/01:30pm 31.8 30.2 16.0 38 9.9 ENE 19 26 10 14 1012.1 - 0.0
28/01:00pm 31.9 30.6 16.7 40 9.6 ESE 19 26 10 14 1012.6 - 0.0
28/12:30pm 31.0 28.6 16.5 41 9.1 ESE 24 32 13 17 1013.2 - 0.0
28/12:00pm 30.6 29.7 18.3 47 7.9 ESE 20 28 11 15 1013.5 1013.3 0.0
28/11:30am 30.1 29.7 19.0 51 7.2 E 19 28 10 15 1014.1 - 0.0
28/11:00am 29.8 29.1 18.6 51 7.2 ENE 20 30 11 16 1014.3 - 0.0
28/10:30am 29.3 28.8 19.1 54 6.6 E 20 26 11 14 1014.4 - 0.0
28/10:00am 28.6 28.5 19.9 59 5.7 E 20 28 11 15 1014.6 - 0.0
28/09:30am 27.7 28.7 21.1 67 4.4 E 17 19 9 10 1014.5 - 0.0
28/09:00am 27.0 28.7 21.6 72 3.6 E 15 20 8 11 1014.3 1014.1 0.0
28/08:30am 26.0 28.5 21.0 74 3.3 ESE 9 11 5 6 1014.0 - 0.0
28/08:00am 24.9 27.5 20.5 76 2.9 ESE 7 9 4 5 1013.8 - 0.0
28/07:30am 23.8 25.3 19.8 78 2.6 SSE 11 13 6 7 1013.4 - 0.0
28/07:00am 23.3 24.4 19.7 80 2.3 SSE 13 13 7 7 1013.0 - 0.0
28/06:30am 23.3 24.8 19.7 80 2.3 SSE 11 13 6 7 1012.9 - 0.0
28/06:00am 23.4 25.3 19.7 80 2.4 SE 9 13 5 7 1012.6 1012.4 0.0
28/05:30am 23.5 25.2 20.1 81 2.2 SE 11 13 6 7 1012.5 - 0.0
28/05:00am 23.4 25.4 20.8 85 1.7 SE 11 13 6 7 1012.2 - 0.0
28/04:30am 23.1 25.6 21.0 88 1.4 SSE 9 11 5 6 1012.1 - 0.0
28/04:00am 23.5 25.6 20.9 85 1.7 S 11 13 6 7 1012.0 - 0.0
28/03:30am 23.3 25.7 20.9 86 1.6 S 9 11 5 6 1011.9 - 0.0
28/03:00am 23.6 25.9 20.7 84 1.9 S 9 9 5 5 1012.2 1012.0 0.0
28/02:30am 23.7 26.4 21.3 86 1.6 SE 9 13 5 7 1012.3 - 0.0
28/02:00am 24.1 26.6 21.8 87 1.5 SSE 11 11 6 6 1012.5 - 0.0
28/01:30am 24.5 27.2 22.1 86 1.6 SSE 11 13 6 7 1012.8 - 0.0
28/01:00am 24.3 27.1 21.6 85 1.8 SSE 9 11 5 6 1013.0 - 0.0
28/12:30am 24.4 27.2 21.5 84 1.9 S 9 11 5 6 1013.1 - 0.0
28/12:00am 25.1 27.9 21.6 81 2.3 S 9 11 5 6 1013.2 1013.0 0.0
 
Date/Time
CST
Tmp

°C
App
Tmp
°C
Dew
Point
°C
Rel
Hum
%
Delta-T

°C
Wind Press
QNH
hPa
Press
MSL
hPa
Rain
since
9 am
mm
Dir
 
Spd
km/h
Gust
km/h
Spd
kts
Gust
kts
27/11:30pm 24.9 28.7 21.7 82 2.1 ENE 4 7 2 4 1013.2 - 0.0
27/11:00pm 25.3 28.6 21.9 81 2.3 SSE 7 9 4 5 1013.2 - 0.0
27/10:30pm 25.0 27.9 21.8 82 2.1 NNE 9 11 5 6 1013.0 - 0.0
27/10:00pm 25.5 28.0 21.7 79 2.5 NNE 11 15 6 8 1013.0 - 0.0
27/09:30pm 25.8 28.0 21.8 78 2.7 NE 13 19 7 10 1012.9 - 0.0
27/09:00pm 26.3 27.9 21.5 75 3.2 NE 15 19 8 10 1012.6 1012.4 0.0
27/08:30pm 26.6 28.4 21.2 72 3.6 NNE 13 17 7 9 1012.6 - 0.0
27/08:00pm 26.9 27.6 20.5 68 4.2 NNE 17 19 9 10 1012.3 - 0.0
27/07:30pm 27.1 28.0 20.1 65 4.6 NNE 15 19 8 10 1011.9 - 0.0
27/07:00pm 27.9 27.7 17.6 53 6.5 NNE 15 19 8 10 1011.5 - 0.0
27/06:30pm 28.7 28.1 17.5 50 7.1 NNE 17 24 9 13 1011.1 - 0.0
27/06:00pm 29.8 28.1 17.1 46 8.0 NNE 22 32 12 17 1010.8 1010.6 0.0
27/05:30pm 30.9 29.8 17.2 43 8.7 NNE 19 26 10 14 1010.7 - 0.0
27/05:00pm 31.2 28.7 17.2 43 8.9 NNE 26 35 14 19 1010.5 - 0.0
27/04:30pm 31.6 29.6 18.3 45 8.6 NE 26 33 14 18 1010.5 - 0.0
27/04:00pm 32.5 29.9 18.7 44 9.0 NNE 30 41 16 22 1010.5 - 0.0
27/03:30pm 33.6 31.2 15.3 33 11.4 ESE 22 28 12 15 1010.5 - 0.0
27/03:00pm 33.7 30.6 13.4 29 12.3 E 22 39 12 21 1010.6 1010.4 0.0
27/02:30pm 33.3 28.9 14.0 31 11.8 ESE 30 37 16 20 1010.9 - 0.0
27/02:00pm 33.1 29.6 15.5 34 11.0 ESE 28 37 15 20 1011.2 - 0.0
27/01:30pm 32.4 29.1 15.1 35 10.7 ESE 26 43 14 23 1011.8 - 0.0
27/01:00pm 32.4 28.9 16.6 38 10.0 E 30 39 16 21 1012.5 - 0.0
27/12:30pm 32.2 29.0 16.3 38 10.0 ESE 28 37 15 20 1013.1 - 0.0
27/12:00pm 31.8 28.1 17.0 41 9.4 E 32 39 17 21 1013.4 1013.2 0.0
27/11:30am 31.7 27.9 16.8 40 9.4 E 32 43 17 23 1013.9 - 0.0
27/11:00am 30.7 28.6 18.1 47 8.1 E 26 33 14 18 1014.5 - 0.0
27/10:30am 30.3 29.2 19.4 52 7.1 E 24 33 13 18 1014.7 - 0.0
27/10:00am 29.4 27.7 18.9 53 6.8 E 26 33 14 18 1014.9 - 0.0
27/09:30am 28.8 29.8 21.1 63 5.1 ENE 17 26 9 14 1014.9 - 0.0
27/09:00am 27.6 30.0 22.3 73 3.6 E 13 17 7 9 1014.8 1014.6 0.0
27/08:30am 26.7 28.6 21.3 72 3.6 E 13 17 7 9 1014.5 - 0.0
27/08:00am 25.6 27.7 20.9 75 3.1 ESE 11 15 6 8 1014.3 - 0.0
27/07:30am 24.1 26.9 21.5 85 1.7 SE 9 9 5 5 1013.9 - 0.0
27/07:00am 22.6 25.5 21.1 91 1.0 SE 7 7 4 4 1013.4 - 0.0
27/06:30am 23.3 26.3 21.3 88 1.3 SSE 7 9 4 5 1013.1 - 0.0
27/06:00am 24.0 26.7 21.3 85 1.8 S 9 13 5 7 1013.0 1012.8 0.0
27/05:30am 24.3 27.4 21.1 82 2.1 S 6 9 3 5 1012.8 - 0.0
27/05:00am 24.2 27.4 21.2 83 2.0 SE 6 7 3 4 1012.8 - 0.0
27/04:30am 23.3 26.4 21.5 90 1.2 ESE 7 7 4 4 1012.9 - 0.0
27/04:00am 24.4 27.3 21.7 85 1.8 S 9 9 5 5 1012.9 - 0.0
27/03:30am 24.4 27.2 21.5 84 1.9 SE 9 11 5 6 1013.1 - 0.0
27/03:00am 24.5 27.3 21.6 84 1.9 SE 9 11 5 6 1013.5 1013.3 0.0
27/02:30am 24.2 27.0 21.6 85 1.7 SE 9 11 5 6 1013.9 - 0.0
27/02:00am 25.2 28.2 21.9 82 2.2 S 9 11 5 6 1014.2 - 0.0
27/01:30am 25.2 28.0 21.6 80 2.4 SSE 9 11 5 6 1014.4 - 0.0
27/01:00am 25.5 28.6 21.4 78 2.7 SSE 7 9 4 5 1014.6 - 0.0
27/12:30am 25.7 28.6 21.8 79 2.6 SE 9 11 5 6 1014.9 - 0.0
27/12:00am 25.7 28.8 22.1 80 2.4 SE 9 11 5 6 1015.1 1014.9 0.0
 
Date/Time
CST
Tmp

°C
App
Tmp
°C
Dew
Point
°C
Rel
Hum
%
Delta-T

°C
Wind Press
QNH
hPa
Press
MSL
hPa
Rain
since
9 am
mm
Dir
 
Spd
km/h
Gust
km/h
Spd
kts
Gust
kts
26/11:30pm 25.3 28.9 22.3 83 2.0 SE 7 9 4 5 1015.2 - 0.0
26/11:00pm 26.1 29.7 22.4 80 2.5 SSE 7 9 4 5 1015.0 - 0.0
26/10:30pm 26.6 30.1 22.9 80 2.5 S 9 11 5 6 1015.0 - 0.0
26/10:00pm 26.7 29.7 21.9 75 3.2 SSE 9 11 5 6 1015.0 - 0.0
26/09:30pm 27.4 30.3 21.7 71 3.8 S 9 11 5 6 1014.7 - 0.0
26/09:00pm 27.3 30.3 21.3 69 4.0 S 7 9 4 5 1014.6 1014.4 0.0
26/08:30pm 26.3 29.3 21.3 74 3.3 N 7 7 4 4 1014.3 - 0.0
26/08:00pm 26.9 29.9 21.3 71 3.7 N 7 9 4 5 1013.8 - 0.0
26/07:30pm 27.7 30.7 21.2 67 4.3 N 7 9 4 5 1013.5 - 0.0
26/07:00pm 28.1 29.8 20.2 62 5.2 N 11 13 6 7 1013.2 - 0.0
26/06:30pm 28.8 29.5 19.6 57 6.0 NNE 15 19 8 10 1012.7 - 0.0
26/06:00pm 29.9 30.4 20.0 55 6.5 N 17 22 9 12 1012.4 1012.2 0.0

Latest Capital City Observations: Canberra | Sydney | Melbourne | Brisbane | Adelaide | Perth | Hobart | Darwin

Other Formats:

Comma delimited format used in spreadsheet applications
http://www.bom.gov.au/fwo/IDD60901/IDD60901.94120.axf

JavaScript Object Notation format (JSON) in row-major order
http://www.bom.gov.au/fwo/IDD60901/IDD60901.94120.json